Time;durP1;ratioP1;P1;durP2;ratioP2;P2;SDS_P1;SDS_P2;PMS_P1;PMS_P2;Temp;Humidity;BMP_temperature;BMP_pressure;BME280_temperature;BME280_humidity;BME280_pressure;Samples;Min_cycle;Max_cycle;Signal;HPM_P1;HPM_P2
2022/10/23 00:00:57;;;;;;;8.73;2.43;;;;;;;13.59;100.00;101162.28;5013122;28;20522;-72
2022/10/23 00:03:23;;;;;;;18.40;3.67;;;;;;;13.53;100.00;101158.88;5013440;28;20475;-70
2022/10/23 00:05:51;;;;;;;6.63;2.90;;;;;;;13.51;100.00;101163.06;5013674;28;20471;-70
2022/10/23 00:08:18;;;;;;;8.87;2.47;;;;;;;13.46;100.00;101166.69;5014528;28;20862;-70
2022/10/23 00:10:44;;;;;;;5.60;2.40;;;;;;;13.43;100.00;101163.78;5013481;28;20464;-72
2022/10/23 00:13:11;;;;;;;8.77;3.83;;;;;;;13.40;100.00;101169.81;5012894;28;20464;-70
2022/10/23 00:15:37;;;;;;;5.27;2.30;;;;;;;13.41;100.00;101171.41;5014515;28;20444;-70
2022/10/23 00:18:04;;;;;;;7.60;3.73;;;;;;;13.40;100.00;101177.97;5011835;28;20496;-71
2022/10/23 00:20:31;;;;;;;6.57;2.93;;;;;;;13.41;100.00;101174.94;5014368;28;20444;-70
2022/10/23 00:22:58;;;;;;;15.13;3.20;;;;;;;13.38;100.00;101184.53;5013243;28;20515;-70
2022/10/23 00:25:25;;;;;;;5.50;2.60;;;;;;;13.40;100.00;101184.22;5014102;28;20444;-70
2022/10/23 00:27:51;;;;;;;6.47;3.03;;;;;;;13.41;100.00;101180.38;5013296;28;20476;-70
2022/10/23 00:30:18;;;;;;;8.20;3.33;;;;;;;13.45;100.00;101186.03;5014255;28;20855;-70
2022/10/23 00:32:44;;;;;;;12.53;3.53;;;;;;;13.47;100.00;101181.91;5012812;28;20468;-70
2022/10/23 00:35:10;;;;;;;6.87;3.27;;;;;;;13.55;100.00;101185.81;5014325;28;20447;-70
2022/10/23 00:37:37;;;;;;;9.47;3.83;;;;;;;13.54;100.00;101187.72;5012868;28;20503;-71
2022/10/23 00:40:06;;;;;;;8.37;3.57;;;;;;;13.55;100.00;101199.44;5011744;28;20460;-70
2022/10/23 00:42:33;;;;;;;7.87;3.03;;;;;;;13.54;100.00;101190.44;5014082;28;20455;-70
2022/10/23 00:45:19;;;;;;;6.87;2.57;;;;;;;13.59;100.00;101186.78;5011635;28;20955;-70
2022/10/23 00:47:45;;;;;;;8.93;2.90;;;;;;;13.63;100.00;101199.53;5013003;28;20456;-71
2022/10/23 00:50:12;;;;;;;9.77;3.90;;;;;;;13.69;100.00;101185.78;4994357;28;20495;-70
2022/10/23 00:52:44;;;;;;;7.70;3.17;;;;;;;13.74;100.00;101188.38;4994483;28;20448;-71
2022/10/23 00:55:13;;;;;;;13.97;3.40;;;;;;;13.74;100.00;101185.66;5013544;28;20459;-70
2022/10/23 00:57:42;;;;;;;9.23;3.70;;;;;;;13.75;100.00;101190.78;5013263;28;20496;-70
2022/10/23 01:00:14;;;;;;;10.10;3.73;;;;;;;13.82;100.00;101198.56;4994193;28;20449;-70
2022/10/23 01:02:40;;;;;;;10.57;3.53;;;;;;;13.84;100.00;101197.13;5013364;28;20448;-71
2022/10/23 01:05:07;;;;;;;9.03;3.13;;;;;;;13.87;100.00;101195.72;5013788;28;20447;-71
2022/10/23 01:07:42;;;;;;;7.03;3.13;;;;;;;13.82;100.00;101191.19;5010510;28;20558;-71
2022/10/23 01:10:17;;;;;;;7.70;3.10;;;;;;;13.85;100.00;101190.53;5011866;28;20947;-70
2022/10/23 01:12:50;;;;;;;6.23;2.93;;;;;;;13.85;100.00;101182.38;5012564;28;20456;-71
2022/10/23 01:15:21;;;;;;;6.60;3.10;;;;;;;13.86;100.00;101194.09;5012703;28;20460;-70
2022/10/23 01:17:55;;;;;;;6.47;2.60;;;;;;;13.85;100.00;101198.72;5012418;28;20496;-70
2022/10/23 01:20:37;;;;;;;8.80;3.23;;;;;;;13.78;100.00;101195.63;5013604;28;20478;-70
2022/10/23 01:23:39;;;;;;;6.30;2.77;;;;;;;13.73;100.00;101190.31;5012497;28;20464;-70
2022/10/23 01:26:19;;;;;;;7.00;3.00;;;;;;;13.72;100.00;101202.28;5012323;28;20511;-69
2022/10/23 01:28:52;;;;;;;7.23;3.53;;;;;;;13.71;100.00;101199.88;5013204;28;20431;-70
2022/10/23 01:31:25;;;;;;;8.77;3.00;;;;;;;13.66;100.00;101203.53;5012631;28;20463;-70
2022/10/23 01:33:57;;;;;;;6.00;2.57;;;;;;;13.61;100.00;101201.72;5013569;28;20440;-71
2022/10/23 01:36:27;;;;;;;8.30;3.23;;;;;;;13.61;100.00;101200.91;5012025;28;20452;-71
2022/10/23 01:38:58;;;;;;;8.63;3.50;;;;;;;13.59;100.00;101203.13;5012509;28;20517;-72
2022/10/23 01:41:29;;;;;;;6.53;3.20;;;;;;;13.57;100.00;101200.72;5012424;28;20460;-71
2022/10/23 01:44:04;;;;;;;9.77;3.00;;;;;;;13.51;100.00;101199.22;5012297;28;20468;-70
2022/10/23 01:46:34;;;;;;;7.20;2.97;;;;;;;13.44;100.00;101206.19;5012274;28;21066;-72
2022/10/23 01:49:02;;;;;;;6.93;3.03;;;;;;;13.43;100.00;101204.59;5012066;28;20456;-69
2022/10/23 01:51:31;;;;;;;9.97;3.73;;;;;;;13.41;100.00;101195.91;5013245;28;20440;-71
2022/10/23 01:54:00;;;;;;;6.67;3.07;;;;;;;13.37;100.00;101196.53;5012153;28;20490;-72
2022/10/23 01:56:30;;;;;;;7.17;3.33;;;;;;;13.40;100.00;101199.75;5011770;28;20487;-71
2022/10/23 01:59:02;;;;;;;9.00;3.60;;;;;;;13.43;100.00;101199.16;5013156;28;20460;-71
2022/10/23 02:01:31;;;;;;;7.50;3.40;;;;;;;13.40;100.00;101200.56;5012135;28;20456;-72
2022/10/23 02:03:59;;;;;;;7.13;3.23;;;;;;;13.39;100.00;101198.94;5013230;28;20452;-72
2022/10/23 02:06:26;;;;;;;5.60;3.00;;;;;;;13.40;100.00;101199.75;5011970;28;20487;-72
2022/10/23 02:08:52;;;;;;;9.80;3.77;;;;;;;13.41;100.00;101190.47;5012876;28;20439;-71
2022/10/23 02:11:21;;;;;;;6.83;2.93;;;;;;;13.41;100.00;101191.28;5012173;28;20463;-71
2022/10/23 02:13:56;;;;;;;6.10;2.77;;;;;;;13.42;100.00;101192.91;5013180;28;20448;-71
2022/10/23 02:16:31;;;;;;;8.77;3.30;;;;;;;13.46;100.00;101187.63;5011898;28;20470;-71
2022/10/23 02:19:08;;;;;;;10.53;3.30;;;;;;;13.42;100.00;101190.19;5014709;28;20467;-73
2022/10/23 02:21:41;;;;;;;7.30;3.13;;;;;;;13.37;100.00;101193.81;5015695;28;20460;-71
2022/10/23 02:24:11;;;;;;;6.83;3.27;;;;;;;13.34;100.00;101191.69;5016433;28;20420;-71
2022/10/23 02:26:42;;;;;;;5.37;2.63;;;;;;;13.30;100.00;101185.25;5015215;28;21056;-71
2022/10/23 02:29:14;;;;;;;8.60;3.23;;;;;;;13.20;100.00;101188.16;5016639;28;20420;-71
2022/10/23 02:31:42;;;;;;;8.00;3.20;;;;;;;13.22;100.00;101185.97;5016555;28;20451;-70
2022/10/23 02:34:09;;;;;;;8.20;3.50;;;;;;;13.25;100.00;101188.09;5015568;28;20498;-71
2022/10/23 02:36:35;;;;;;;7.57;3.20;;;;;;;13.28;100.00;101186.66;5015323;28;20490;-70
2022/10/23 02:39:02;;;;;;;7.97;3.80;;;;;;;13.26;100.00;101180.72;5014045;28;20495;-71
2022/10/23 02:41:37;;;;;;;5.80;2.53;;;;;;;13.26;100.00;101176.09;5016118;28;20506;-70
2022/10/23 02:44:25;;;;;;;8.10;3.70;;;;;;;13.18;100.00;101171.31;5015243;28;20831;-70
2022/10/23 02:47:08;;;;;;;8.37;3.70;;;;;;;13.15;100.00;101174.66;5016181;28;20483;-70
2022/10/23 02:49:42;;;;;;;8.47;3.57;;;;;;;13.16;100.00;101172.75;5014823;28;20506;-70
2022/10/23 02:52:14;;;;;;;11.77;3.33;;;;;;;13.12;100.00;101180.72;5016377;28;20519;-70
2022/10/23 02:54:54;;;;;;;6.87;3.10;;;;;;;13.08;100.00;101187.84;5013893;28;20468;-70
2022/10/23 02:57:29;;;;;;;15.63;4.10;;;;;;;13.00;100.00;101191.28;5015648;28;20472;-71
2022/10/23 03:00:03;;;;;;;6.80;2.93;;;;;;;12.95;100.00;101185.94;5015281;28;20448;-71
2022/10/23 03:02:38;;;;;;;7.10;3.17;;;;;;;12.94;100.00;101179.72;5015037;28;20534;-71
2022/10/23 03:05:08;;;;;;;10.20;3.60;;;;;;;12.90;100.00;101180.63;5015666;28;20911;-71
2022/10/23 03:07:35;;;;;;;7.00;3.10;;;;;;;12.90;100.00;101183.34;5014950;28;20456;-71
2022/10/23 03:10:02;;;;;;;7.20;3.30;;;;;;;12.83;100.00;101175.56;5013042;28;20452;-70
2022/10/23 03:12:28;;;;;;;10.70;3.30;;;;;;;12.76;100.00;101170.53;5014300;28;20969;-71
2022/10/23 03:14:54;;;;;;;7.80;3.20;;;;;;;12.71;100.00;101178.78;4995765;28;20447;-71
2022/10/23 03:17:21;;;;;;;8.10;3.50;;;;;;;12.63;100.00;101182.19;5005377;28;20561;-70
2022/10/23 03:19:48;;;;;;;7.87;3.07;;;;;;;12.56;100.00;101181.78;5014044;28;20491;-69
2022/10/23 03:22:15;;;;;;;7.80;3.30;;;;;;;12.46;100.00;101179.25;5015603;28;20443;-69
2022/10/23 03:24:41;;;;;;;7.50;2.90;;;;;;;12.38;100.00;101176.09;5014430;28;20849;-71
2022/10/23 03:27:10;;;;;;;9.07;3.10;;;;;;;12.32;100.00;101177.31;5015093;28;20869;-71
2022/10/23 03:29:36;;;;;;;7.27;3.73;;;;;;;12.25;100.00;101176.88;5012977;28;20460;-71
2022/10/23 03:32:03;;;;;;;6.03;2.30;;;;;;;12.29;100.00;101174.38;5015147;28;20545;-71
2022/10/23 03:34:29;;;;;;;6.07;3.40;;;;;;;12.21;100.00;101178.56;5014005;28;20459;-71
2022/10/23 03:36:57;;;;;;;7.10;2.67;;;;;;;12.18;100.00;101176.47;5015256;28;20491;-71
2022/10/23 03:39:24;;;;;;;7.97;3.40;;;;;;;12.20;100.00;101174.25;5013947;28;20882;-70
2022/10/23 03:41:50;;;;;;;8.60;3.77;;;;;;;12.07;100.00;101180.44;5014873;28;20895;-71
2022/10/23 03:44:17;;;;;;;8.30;4.27;;;;;;;12.11;100.00;101184.19;5012684;28;20963;-70
2022/10/23 03:46:44;;;;;;;7.67;2.70;;;;;;;11.98;100.00;101187.66;5015006;28;20466;-70
2022/10/23 03:49:10;;;;;;;8.27;3.20;;;;;;;12.00;100.00;101196.31;5013657;28;20471;-71
2022/10/23 03:51:40;;;;;;;11.70;4.50;;;;;;;11.99;100.00;101191.97;5015007;28;20444;-71
2022/10/23 03:54:08;;;;;;;6.07;2.30;;;;;;;11.92;100.00;101184.22;5013712;28;20460;-70
2022/10/23 03:56:35;;;;;;;6.63;3.00;;;;;;;11.89;100.00;101194.84;5014726;28;20463;-71
2022/10/23 03:59:01;;;;;;;7.83;3.00;;;;;;;11.89;100.00;101189.41;5012680;28;20538;-71
2022/10/23 04:01:27;;;;;;;8.03;3.07;;;;;;;11.81;100.00;101186.22;5014864;28;20440;-71
2022/10/23 04:03:54;;;;;;;8.20;3.10;;;;;;;11.79;100.00;101184.91;5013623;28;20522;-70
2022/10/23 04:06:20;;;;;;;7.93;3.40;;;;;;;11.75;100.00;101189.31;5014680;28;20444;-70
2022/10/23 04:08:47;;;;;;;7.63;3.40;;;;;;;11.71;100.00;101185.56;5012669;28;20468;-69
2022/10/23 04:11:14;;;;;;;6.37;2.63;;;;;;;11.67;100.00;101185.34;5014625;28;20444;-69
2022/10/23 04:13:41;;;;;;;7.53;2.50;;;;;;;11.62;100.00;101199.81;5013389;28;20467;-70
2022/10/23 04:16:07;;;;;;;8.93;3.67;;;;;;;11.56;100.00;101189.31;5014341;28;20459;-70
2022/10/23 04:18:34;;;;;;;6.40;2.93;;;;;;;11.55;100.00;101182.25;5011814;28;20493;-70
2022/10/23 04:21:00;;;;;;;8.17;2.83;;;;;;;11.45;100.00;101190.53;5013105;28;20915;-71
2022/10/23 04:23:26;;;;;;;8.37;3.03;;;;;;;11.36;100.00;101190.38;5012210;28;20491;-70
2022/10/23 04:25:55;;;;;;;8.07;3.20;;;;;;;11.24;100.00;101177.25;5013290;28;20443;-69
2022/10/23 04:28:23;;;;;;;8.43;3.40;;;;;;;11.22;100.00;101174.03;5014241;28;20515;-70
2022/10/23 04:30:50;;;;;;;7.10;2.73;;;;;;;11.21;100.00;101175.13;5013395;28;20854;-70
2022/10/23 04:33:17;;;;;;;7.30;2.80;;;;;;;11.17;100.00;101165.16;5024525;28;20451;-70
2022/10/23 04:35:43;;;;;;;8.63;2.87;;;;;;;11.09;100.00;101170.13;5014859;28;20551;-71
2022/10/23 04:38:10;;;;;;;8.23;3.07;;;;;;;11.01;100.00;101170.75;5013785;28;20880;-70
2022/10/23 04:40:37;;;;;;;7.67;3.07;;;;;;;11.02;100.00;101177.81;5012446;28;20471;-71
2022/10/23 04:43:04;;;;;;;13.53;3.00;;;;;;;11.01;100.00;101173.47;5012519;28;21010;-69
2022/10/23 04:45:32;;;;;;;7.90;3.30;;;;;;;10.99;100.00;101178.38;5013028;28;20457;-68
2022/10/23 04:47:58;;;;;;;6.50;2.80;;;;;;;10.94;100.00;101181.16;5014003;28;20464;-74
2022/10/23 04:50:25;;;;;;;7.20;3.03;;;;;;;10.92;100.00;101167.06;5012847;28;20498;-71
2022/10/23 04:52:54;;;;;;;6.93;3.43;;;;;;;10.90;100.00;101187.44;5011687;28;20464;-72
2022/10/23 04:55:20;;;;;;;15.50;3.97;;;;;;;10.69;100.00;101176.81;5013648;28;20864;-71
2022/10/23 04:57:47;;;;;;;10.63;3.87;;;;;;;10.75;100.00;101189.19;5038227;23;20583;-74
2022/10/23 05:00:14;;;;;;;9.27;3.67;;;;;;;10.76;100.00;101190.84;5013445;28;20492;-73
2022/10/23 05:02:42;;;;;;;6.80;3.03;;;;;;;10.74;100.00;101182.16;5013324;28;20455;-74
2022/10/23 05:05:09;;;;;;;7.70;3.20;;;;;;;10.74;100.00;101181.38;5014032;28;20876;-74
2022/10/23 05:07:36;;;;;;;8.30;3.50;;;;;;;10.68;100.00;101175.19;5013268;28;20480;-73
2022/10/23 05:10:03;;;;;;;7.83;3.73;;;;;;;10.72;100.00;101178.94;5013480;28;20513;-73
2022/10/23 05:12:29;;;;;;;8.27;2.93;;;;;;;10.71;100.00;101182.72;5012815;28;20474;-74
2022/10/23 05:14:56;;;;;;;7.40;2.57;;;;;;;10.66;100.00;101177.38;5012815;28;20475;-75
2022/10/23 05:17:26;;;;;;;6.80;2.83;;;;;;;10.67;100.00;101170.03;5010601;28;20479;-73
2022/10/23 05:19:56;;;;;;;13.07;3.60;;;;;;;10.66;100.00;101169.25;5013794;28;20534;-73
2022/10/23 05:22:26;;;;;;;7.50;3.40;;;;;;;10.66;100.00;101171.94;5012923;28;20463;-73
2022/10/23 05:24:53;;;;;;;7.73;3.57;;;;;;;10.71;100.00;101174.59;5012594;28;20471;-73
2022/10/23 05:27:20;;;;;;;7.53;3.30;;;;;;;10.69;100.00;101168.69;5012747;28;20490;-73
2022/10/23 05:29:46;;;;;;;8.20;3.40;;;;;;;10.64;100.00;101163.31;5013825;28;20447;-72
2022/10/23 05:32:16;;;;;;;6.27;3.10;;;;;;;10.64;100.00;101171.44;5012371;28;20975;-73
2022/10/23 05:34:42;;;;;;;9.53;4.13;;;;;;;10.63;100.00;101175.25;5012808;28;20843;-74
2022/10/23 05:37:14;;;;;;;7.67;3.20;;;;;;;10.57;100.00;101179.09;5012450;28;20476;-73
2022/10/23 05:39:40;;;;;;;9.03;3.20;;;;;;;10.54;100.00;101175.06;5013271;28;21001;-73
2022/10/23 05:42:06;;;;;;;9.00;3.60;;;;;;;10.51;100.00;101172.13;5012471;28;20881;-73
2022/10/23 05:44:34;;;;;;;8.83;3.43;;;;;;;10.50;100.00;101175.94;5012049;28;20518;-73
2022/10/23 05:47:00;;;;;;;7.63;3.53;;;;;;;10.46;100.00;101183.00;5013529;28;20790;-73
2022/10/23 05:49:27;;;;;;;12.50;3.80;;;;;;;10.39;100.00;101190.66;5010997;28;20464;-73
2022/10/23 05:51:53;;;;;;;6.53;3.47;;;;;;;10.28;100.00;101190.75;5013518;28;20440;-73
2022/10/23 05:54:21;;;;;;;6.43;2.97;;;;;;;10.27;100.00;101186.41;5015836;28;20855;-73
2022/10/23 05:56:47;;;;;;;5.40;2.40;;;;;;;10.24;100.00;101195.09;5016022;28;20474;-72
2022/10/23 05:59:14;;;;;;;8.30;3.60;;;;;;;10.18;100.00;101182.69;5017168;28;20472;-72
2022/10/23 06:01:40;;;;;;;6.10;2.77;;;;;;;10.12;100.00;101178.38;5016194;28;20467;-73
2022/10/23 06:04:06;;;;;;;9.43;3.00;;;;;;;10.19;100.00;101180.78;5016334;28;20475;-72
2022/10/23 06:06:33;;;;;;;7.17;3.33;;;;;;;10.19;100.00;101175.38;5016052;28;20463;-72
2022/10/23 06:09:00;;;;;;;8.90;3.30;;;;;;;10.24;100.00;101184.28;5016998;28;20460;-73
2022/10/23 06:11:28;;;;;;;7.50;3.27;;;;;;;10.32;100.00;101186.38;5016327;28;20464;-73
2022/10/23 06:13:54;;;;;;;7.43;3.10;;;;;;;10.31;100.00;101189.34;5015834;28;20471;-71
2022/10/23 06:16:24;;;;;;;6.17;2.40;;;;;;;10.33;100.00;101182.56;5016179;28;20471;-72
2022/10/23 06:18:51;;;;;;;9.80;3.27;;;;;;;10.24;100.00;101181.56;5016574;28;20472;-73
2022/10/23 06:21:17;;;;;;;10.00;3.70;;;;;;;10.17;100.00;101172.91;5015886;28;20502;-68
2022/10/23 06:23:44;;;;;;;8.13;3.47;;;;;;;10.19;100.00;101181.59;5015866;28;20467;-68
2022/10/23 06:26:14;;;;;;;6.57;2.90;;;;;;;10.22;100.00;101170.16;5015720;28;20490;-68
2022/10/23 06:28:42;;;;;;;10.37;3.13;;;;;;;10.10;100.00;101175.16;5015574;28;20885;-72
2022/10/23 06:31:10;;;;;;;7.43;2.80;;;;;;;10.14;100.00;101170.81;5015564;28;20966;-71
2022/10/23 06:33:37;;;;;;;7.10;2.90;;;;;;;10.22;100.00;101169.38;5015394;28;20509;-66
2022/10/23 06:36:07;;;;;;;6.03;3.10;;;;;;;10.22;100.00;101164.75;5014441;28;20467;-72
2022/10/23 06:38:36;;;;;;;10.30;3.60;;;;;;;10.27;100.00;101164.75;5016491;28;20468;-73
2022/10/23 06:41:03;;;;;;;9.33;4.00;;;;;;;10.29;100.00;101169.88;5015548;28;20487;-73
2022/10/23 06:43:30;;;;;;;11.73;3.77;;;;;;;10.25;100.00;101179.66;5015768;28;20440;-71
2022/10/23 06:46:00;;;;;;;7.77;3.70;;;;;;;10.27;100.00;101188.28;5015940;28;20460;-73
2022/10/23 06:48:27;;;;;;;6.93;2.70;;;;;;;10.40;100.00;101184.13;5016013;28;20890;-72
2022/10/23 06:50:54;;;;;;;8.93;3.20;;;;;;;10.46;100.00;101183.00;5014722;28;20456;-71
2022/10/23 06:53:22;;;;;;;10.20;4.50;;;;;;;10.61;100.00;101183.66;5016079;28;20448;-72
2022/10/23 06:55:49;;;;;;;9.80;4.40;;;;;;;10.74;100.00;101182.16;5011696;28;20536;-72
2022/10/23 06:58:15;;;;;;;8.13;3.63;;;;;;;10.72;100.00;101187.09;5015432;28;20529;-72
2022/10/23 07:00:43;;;;;;;7.67;3.57;;;;;;;10.77;100.00;101181.59;5016185;28;20491;-72
2022/10/23 07:03:10;;;;;;;9.30;4.10;;;;;;;10.93;100.00;101195.78;5014798;28;20456;-72
2022/10/23 07:05:37;;;;;;;8.07;3.93;;;;;;;10.96;100.00;101192.50;5012327;28;21028;-72
2022/10/23 07:08:05;;;;;;;9.10;4.70;;;;;;;11.06;100.00;101178.81;5015768;28;20472;-72
2022/10/23 07:10:31;;;;;;;8.93;4.57;;;;;;;11.09;100.00;101194.50;5013871;28;20460;-69
2022/10/23 07:12:59;;;;;;;8.53;4.60;;;;;;;11.14;100.00;101195.56;5014522;28;21005;-69
2022/10/23 07:15:26;;;;;;;9.17;5.20;;;;;;;11.22;100.00;101186.78;5016047;28;20447;-71
2022/10/23 07:17:52;;;;;;;11.23;5.50;;;;;;;11.35;100.00;101199.63;5014624;28;20887;-68
2022/10/23 07:20:20;;;;;;;12.70;5.13;;;;;;;11.43;100.00;101203.59;5014664;28;20494;-67
2022/10/23 07:22:50;;;;;;;9.13;5.00;;;;;;;11.57;100.00;101205.31;5014219;28;20468;-67
2022/10/23 07:25:17;;;;;;;10.47;5.00;;;;;;;11.71;100.00;101189.09;5015838;28;20440;-68
2022/10/23 07:27:44;;;;;;;8.53;4.53;;;;;;;11.86;100.00;101186.19;5011264;28;20484;-68
2022/10/23 07:30:11;;;;;;;8.33;4.00;;;;;;;12.01;100.00;101192.50;5015446;28;20455;-67
2022/10/23 07:32:38;;;;;;;11.80;4.50;;;;;;;12.15;100.00;101196.06;5014083;28;20844;-68
2022/10/23 07:35:05;;;;;;;8.30;3.93;;;;;;;12.32;100.00;101198.22;5015419;28;20459;-68
2022/10/23 07:37:33;;;;;;;16.80;4.37;;;;;;;12.42;100.00;101195.34;5011837;28;20480;-68
2022/10/23 07:40:00;;;;;;;8.60;4.07;;;;;;;12.54;100.00;101194.88;5014169;28;20499;-68
2022/10/23 07:42:26;;;;;;;15.07;5.10;;;;;;;12.66;100.00;101191.66;5015206;28;20440;-68
2022/10/23 07:44:53;;;;;;;7.63;3.70;;;;;;;12.75;100.00;101190.69;5014202;28;20464;-68
2022/10/23 07:47:19;;;;;;;8.30;4.03;;;;;;;12.84;100.00;101194.31;5013609;28;21014;-68
2022/10/23 07:49:47;;;;;;;11.07;3.60;;;;;;;12.93;100.00;101193.63;5014349;28;20466;-68
2022/10/23 07:52:13;;;;;;;10.10;4.67;;;;;;;12.94;100.00;101193.31;5013523;28;20467;-70
2022/10/23 07:54:41;;;;;;;10.23;4.20;;;;;;;13.02;100.00;101194.53;5014126;28;20487;-68
2022/10/23 07:57:08;;;;;;;10.87;4.33;;;;;;;13.10;100.00;101197.34;5011029;28;20915;-69
2022/10/23 07:59:34;;;;;;;10.03;4.43;;;;;;;13.20;100.00;101188.16;5010018;28;21011;-69
2022/10/23 08:02:00;;;;;;;9.23;4.13;;;;;;;13.30;100.00;101189.88;5014633;28;20448;-69
2022/10/23 08:04:27;;;;;;;8.73;4.43;;;;;;;13.38;100.00;101192.69;5011715;28;20464;-68
2022/10/23 08:06:54;;;;;;;10.70;4.67;;;;;;;13.49;100.00;101189.75;5014707;28;20444;-68
2022/10/23 08:09:21;;;;;;;10.57;3.90;;;;;;;13.60;100.00;101183.78;5013521;28;20488;-68
2022/10/23 08:11:49;;;;;;;9.60;3.80;;;;;;;13.69;100.00;101189.31;5009934;28;20967;-68
2022/10/23 08:14:15;;;;;;;9.13;3.90;;;;;;;13.74;100.00;101181.03;5013426;28;20808;-67
2022/10/23 08:16:42;;;;;;;9.30;4.10;;;;;;;13.79;100.00;101182.81;5014148;28;20456;-67
2022/10/23 08:19:08;;;;;;;7.57;3.37;;;;;;;13.83;100.00;101179.19;5012337;28;20471;-67
2022/10/23 08:21:35;;;;;;;7.70;3.50;;;;;;;13.88;100.00;101184.50;5013317;28;20546;-68
2022/10/23 08:24:01;;;;;;;9.47;4.10;;;;;;;13.95;100.00;101188.72;5014450;28;20498;-67
2022/10/23 08:26:29;;;;;;;11.00;3.93;;;;;;;14.00;100.00;101186.69;5013357;28;20455;-67
2022/10/23 08:28:59;;;;;;;7.83;4.10;;;;;;;14.04;100.00;101193.13;5013215;28;20479;-67
2022/10/23 08:31:25;;;;;;;10.93;3.10;;;;;;;14.13;100.00;101185.81;5013193;28;20510;-69
2022/10/23 08:33:51;;;;;;;7.17;3.77;;;;;;;14.18;100.00;101194.97;5013446;28;20471;-67
2022/10/23 08:36:21;;;;;;;9.20;3.70;;;;;;;14.19;100.00;101193.84;5013155;28;20498;-68
2022/10/23 08:38:48;;;;;;;6.90;3.30;;;;;;;14.25;100.00;101192.59;5014125;28;20522;-67
2022/10/23 08:41:24;;;;;;;12.93;4.37;;;;;;;14.26;100.00;101195.03;5013211;28;20484;-70
2022/10/23 08:43:56;;;;;;;12.17;3.50;;;;;;;14.30;100.00;101192.50;4994223;28;20809;-68
2022/10/23 08:46:28;;;;;;;6.40;3.23;;;;;;;14.37;100.00;101196.38;4994268;28;20927;-69
2022/10/23 08:49:01;;;;;;;6.87;3.10;;;;;;;14.44;100.00;101193.22;5013669;28;20487;-68
2022/10/23 08:51:34;;;;;;;8.97;3.00;;;;;;;14.55;100.00;101191.06;5011860;28;20514;-68
2022/10/23 08:54:06;;;;;;;6.07;2.97;;;;;;;14.59;100.00;101181.94;5014028;28;20443;-68
2022/10/23 08:56:34;;;;;;;10.43;3.47;;;;;;;14.66;100.00;101189.69;5011766;28;20902;-67
2022/10/23 08:59:07;;;;;;;6.27;2.60;;;;;;;14.77;100.00;101187.47;5010156;28;20541;-68
2022/10/23 09:01:40;;;;;;;6.93;3.03;;;;;;;14.91;100.00;101174.53;5009418;28;20562;-70
2022/10/23 09:04:07;;;;;;;16.00;3.30;;;;;;;14.97;100.00;101175.22;5014081;28;20495;-70
2022/10/23 09:06:41;;;;;;;6.90;3.07;;;;;;;15.08;100.00;101176.50;5012749;28;20463;-70
2022/10/23 09:09:43;;;;;;;11.20;3.43;;;;;;;15.15;100.00;101176.88;5011434;28;20463;-70
2022/10/23 09:12:14;;;;;;;9.17;2.80;;;;;;;15.27;100.00;101181.69;5013759;28;20432;-70
2022/10/23 09:14:59;;;;;;;12.83;3.60;;;;;;;15.33;100.00;101181.25;5012312;28;21026;-69
2022/10/23 09:17:28;;;;;;;6.60;3.20;;;;;;;15.36;100.00;101172.41;5013298;28;20514;-70
2022/10/23 09:20:01;;;;;;;5.40;2.40;;;;;;;15.39;100.00;101171.75;5012734;28;20492;-70
2022/10/23 09:22:28;;;;;;;5.00;2.37;;;;;;;15.51;100.00;101171.16;5007805;28;20502;-70
2022/10/23 09:24:55;;;;;;;4.70;1.90;;;;;;;15.64;100.00;101172.16;5013085;28;20452;-76
2022/10/23 09:27:22;;;;;;;6.57;2.93;;;;;;;15.74;99.13;101166.38;5012995;28;21037;-71
2022/10/23 09:29:50;;;;;;;5.13;2.00;;;;;;;15.85;98.47;101173.13;5014563;28;20810;-76
2022/10/23 09:32:17;;;;;;;5.83;2.10;;;;;;;15.86;98.59;101180.19;5014079;28;20448;-77
2022/10/23 09:34:53;;;;;;;5.73;2.27;;;;;;;15.98;98.25;101176.81;5014107;28;20452;-77
2022/10/23 09:37:23;;;;;;;5.63;1.80;;;;;;;16.03;97.54;101173.91;5013995;28;20503;-77
2022/10/23 09:40:00;;;;;;;9.47;2.80;;;;;;;16.05;95.78;101170.84;5014323;28;20947;-77
2022/10/23 09:42:27;;;;;;;6.33;2.00;;;;;;;16.16;95.75;101177.59;5011633;28;20468;-77
2022/10/23 09:44:56;;;;;;;6.40;2.30;;;;;;;16.31;95.21;101179.81;5015501;28;20858;-77
2022/10/23 09:47:24;;;;;;;7.90;2.23;;;;;;;16.42;93.59;101176.72;5015133;28;20479;-77
2022/10/23 09:49:54;;;;;;;7.53;2.40;;;;;;;16.54;93.40;101166.72;5017072;28;20445;-77
2022/10/23 09:52:28;;;;;;;8.17;2.37;;;;;;;16.67;92.56;101175.84;5015585;28;20446;-77
2022/10/23 09:54:57;;;;;;;5.97;2.27;;;;;;;16.77;92.28;101172.78;5017260;28;20431;-77
2022/10/23 09:57:29;;;;;;;7.73;2.17;;;;;;;16.84;91.58;101166.78;5015639;28;20525;-77
2022/10/23 09:59:59;;;;;;;4.67;1.67;;;;;;;16.96;90.46;101166.09;4999177;28;20437;-79
2022/10/23 10:02:29;;;;;;;4.10;1.77;;;;;;;17.06;89.08;101160.25;5016027;28;20444;-77
2022/10/23 10:04:58;;;;;;;4.73;2.07;;;;;;;17.11;89.63;101157.31;5010660;28;20463;-78
2022/10/23 10:07:26;;;;;;;4.93;1.87;;;;;;;17.25;88.78;101168.03;5014717;28;20493;-78
2022/10/23 10:09:54;;;;;;;5.20;1.90;;;;;;;17.31;87.98;101164.78;5013510;28;20510;-77
2022/10/23 10:12:48;;;;;;;4.13;1.37;;;;;;;17.47;86.73;101155.97;5016215;28;20458;-78
2022/10/23 10:15:22;;;;;;;3.83;1.20;;;;;;;17.59;87.04;101162.31;5018976;28;20977;-77
2022/10/23 10:17:58;;;;;;;5.20;1.67;;;;;;;17.66;87.23;101156.28;5016984;28;20474;-77
2022/10/23 10:20:43;;;;;;;4.17;1.30;;;;;;;17.74;86.73;101149.16;5017268;28;20998;-77
2022/10/23 10:23:18;;;;;;;5.00;1.70;;;;;;;17.77;87.67;101143.81;5019438;28;20420;-78
2022/10/23 10:25:54;;;;;;;4.67;1.50;;;;;;;17.81;87.10;101149.44;5018824;28;20459;-77
2022/10/23 10:28:30;;;;;;;3.70;1.07;;;;;;;17.85;86.28;101145.69;5017911;28;20479;-77
2022/10/23 10:31:08;;;;;;;7.70;1.53;;;;;;;18.00;85.42;101148.94;5017652;28;20436;-77
2022/10/23 10:33:43;;;;;;;4.57;1.50;;;;;;;18.18;85.42;101147.63;5017632;28;20937;-77
2022/10/23 10:36:27;;;;;;;7.47;1.07;;;;;;;18.37;83.96;101147.06;5015885;28;20452;-77
2022/10/23 10:38:59;;;;;;;5.83;1.50;;;;;;;18.53;83.81;101145.28;5013694;28;20986;-77
2022/10/23 10:41:53;;;;;;;11.20;1.37;;;;;;;18.71;84.45;101134.13;5018278;28;20475;-77
2022/10/23 10:44:37;;;;;;;3.23;0.90;;;;;;;18.78;80.04;101129.69;5017549;28;20452;-78
2022/10/23 10:47:13;;;;;;;4.57;1.30;;;;;;;18.88;81.10;101123.72;5020257;28;20459;-77
2022/10/23 10:49:45;;;;;;;4.43;1.10;;;;;;;19.03;80.55;101130.44;5019134;28;20966;-77
2022/10/23 10:52:20;;;;;;;3.50;0.80;;;;;;;19.24;80.98;101127.56;5019826;28;20440;-78
2022/10/23 10:54:57;;;;;;;6.90;1.77;;;;;;;19.41;79.93;101134.75;5019391;28;20607;-78
2022/10/23 10:57:30;;;;;;;7.10;1.70;;;;;;;19.29;80.77;101134.75;5020066;28;20483;-77
2022/10/23 11:00:03;;;;;;;4.20;1.00;;;;;;;19.27;80.91;101129.63;5019599;28;20514;-77
2022/10/23 11:02:34;;;;;;;5.27;1.53;;;;;;;19.31;81.13;101125.03;5017332;28;20459;-78
2022/10/23 11:05:13;;;;;;;5.53;1.27;;;;;;;19.48;79.62;101112.16;5019094;28;20452;-77
2022/10/23 11:07:52;;;;;;;5.83;1.53;;;;;;;19.73;78.12;101110.16;5018117;28;20483;-78
2022/10/23 11:10:19;;;;;;;3.53;1.00;;;;;;;19.98;78.17;101108.09;5014395;28;20814;-69
2022/10/23 11:12:47;;;;;;;4.30;0.97;;;;;;;20.31;76.73;101099.53;5014188;28;20460;-74
2022/10/23 11:15:15;;;;;;;8.43;1.10;;;;;;;20.87;76.39;101093.84;5000349;28;20471;-71
2022/10/23 11:17:47;;;;;;;4.60;1.27;;;;;;;21.41;74.08;101096.63;5015739;28;20472;-76
2022/10/23 11:20:29;;;;;;;3.67;1.20;;;;;;;21.72;70.03;101094.06;5015421;28;20471;-77
2022/10/23 11:23:05;;;;;;;4.03;1.00;;;;;;;22.01;69.59;101090.69;5014584;28;20874;-76
2022/10/23 11:25:50;;;;;;;3.30;0.83;;;;;;;22.49;67.51;101095.88;5014838;28;20468;-77
2022/10/23 11:28:35;;;;;;;3.90;1.20;;;;;;;22.72;66.43;101091.13;5014435;28;20533;-76